createdAt,value
2022-08-20T00:01:02.192Z,20.65
2022-08-20T00:06:17.232Z,14.88
2022-08-20T00:11:25.175Z,16.30
2022-08-20T00:16:32.794Z,16.73
2022-08-20T00:26:36.969Z,19.05
2022-08-20T00:31:54.091Z,19.23
2022-08-20T00:36:55.976Z,15.50
2022-08-20T00:41:58.036Z,23.20
2022-08-20T00:47:00.285Z,16.00
2022-08-20T00:52:09.398Z,18.05
2022-08-20T00:57:55.769Z,16.85
2022-08-20T01:02:57.733Z,15.75
2022-08-20T01:07:59.631Z,25.63
2022-08-20T01:13:11.226Z,20.45
2022-08-20T01:18:16.630Z,18.05
2022-08-20T01:23:32.706Z,20.88
2022-08-20T01:28:43.769Z,22.05
2022-08-20T01:33:46.595Z,26.52
2022-08-20T01:38:54.168Z,18.52
2022-08-20T01:43:58.806Z,22.23
2022-08-20T01:49:13.555Z,23.98
2022-08-20T01:54:15.745Z,19.02
2022-08-20T01:59:17.553Z,21.58
2022-08-20T02:04:20.203Z,19.20
2022-08-20T02:09:23.234Z,22.08
2022-08-20T02:14:26.619Z,21.73
2022-08-20T02:19:45.268Z,18.42
2022-08-20T02:24:47.457Z,26.23
2022-08-20T02:29:50.371Z,22.33
2022-08-20T02:34:52.309Z,20.10
2022-08-20T02:39:54.241Z,25.80
2022-08-20T02:44:56.182Z,23.02
2022-08-20T02:49:59.749Z,17.10
2022-08-20T02:55:01.770Z,22.88
2022-08-20T03:00:12.807Z,19.38
2022-08-20T03:05:14.975Z,18.52
2022-08-20T03:10:17.412Z,21.67
2022-08-20T03:15:20.521Z,19.38
2022-08-20T03:20:24.023Z,20.88
2022-08-20T03:25:27.080Z,16.85
2022-08-20T03:30:29.498Z,17.17
2022-08-20T03:35:33.193Z,19.92
2022-08-20T03:40:36.518Z,14.50
2022-08-20T03:45:40.560Z,17.90
2022-08-20T03:50:44.167Z,15.55
2022-08-20T03:55:53.883Z,14.15
2022-08-20T04:00:59.039Z,13.90
2022-08-20T04:06:00.986Z,14.52
2022-08-20T04:11:03.083Z,12.98
2022-08-20T04:16:11.304Z,14.35
2022-08-20T04:21:17.026Z,12.15
2022-08-20T04:26:20.022Z,10.77
2022-08-20T04:31:25.579Z,10.07
2022-08-20T04:36:27.761Z,8.18
2022-08-20T04:41:29.683Z,7.45
2022-08-20T04:46:32.843Z,4.68
2022-08-20T04:51:34.890Z,3.50
2022-08-20T04:56:39.897Z,3.22
2022-08-20T05:01:41.925Z,3.25
2022-08-20T05:06:44.668Z,3.63
2022-08-20T05:11:46.518Z,3.50
2022-08-20T05:16:48.554Z,3.58
2022-08-20T05:21:53.800Z,5.30
2022-08-20T05:26:55.860Z,7.13
2022-08-20T05:31:57.722Z,4.40
2022-08-20T05:37:04.531Z,5.07
2022-08-20T05:42:09.691Z,7.03
2022-08-20T05:47:11.584Z,6.10
2022-08-20T05:52:13.456Z,4.30
2022-08-20T05:57:20.218Z,4.85
2022-08-20T06:02:40.937Z,7.20
2022-08-20T06:07:43.454Z,4.60
2022-08-20T06:12:45.590Z,6.63
2022-08-20T06:17:47.462Z,5.05
2022-08-20T06:23:00.645Z,6.18
2022-08-20T06:28:04.258Z,7.45
2022-08-20T06:33:06.838Z,6.40
2022-08-20T06:38:11.446Z,10.35
2022-08-20T06:43:13.605Z,8.85
2022-08-20T06:48:15.729Z,16.65
2022-08-20T06:53:20.960Z,15.18
2022-08-20T06:58:36.175Z,13.70
2022-08-20T07:08:57.868Z,14.77
2022-08-20T07:13:59.959Z,13.30
2022-08-20T07:19:01.862Z,15.40
2022-08-20T07:24:04.162Z,11.15
2022-08-20T07:29:06.132Z,12.82
2022-08-20T07:34:08.418Z,12.63
2022-08-20T07:39:10.373Z,14.60
2022-08-20T07:44:12.413Z,12.75
2022-08-20T07:49:14.255Z,12.68
2022-08-20T07:54:16.101Z,11.77
2022-08-20T07:59:18.201Z,14.07
2022-08-20T08:04:20.133Z,13.40
2022-08-20T08:09:25.439Z,11.93
2022-08-20T08:14:31.639Z,13.68
2022-08-20T08:19:49.428Z,13.48
2022-08-20T08:24:57.313Z,14.18
2022-08-20T08:30:01.393Z,13.00
2022-08-20T08:35:09.360Z,12.02
2022-08-20T08:40:11.827Z,11.68
2022-08-20T08:45:18.363Z,12.85
2022-08-20T08:50:50.036Z,16.45
2022-08-20T08:55:48.886Z,15.60
2022-08-20T09:00:50.983Z,12.30
2022-08-20T09:06:00.477Z,11.88
2022-08-20T09:11:05.417Z,13.80
2022-08-20T09:16:07.537Z,15.15
2022-08-20T09:21:09.855Z,18.08
2022-08-20T09:26:12.272Z,13.60
2022-08-20T09:31:14.598Z,16.73
2022-08-20T09:36:29.006Z,15.35
2022-08-20T09:41:34.849Z,19.00
2022-08-20T09:46:37.051Z,17.10
2022-08-20T09:51:39.125Z,19.40
2022-08-20T09:56:41.227Z,17.65
2022-08-20T10:01:43.229Z,20.23
2022-08-20T10:06:45.820Z,21.58
2022-08-20T10:11:47.761Z,18.52
2022-08-20T10:16:56.199Z,18.33
2022-08-20T10:22:02.415Z,17.60
2022-08-20T10:27:04.759Z,21.27
2022-08-20T10:32:12.536Z,23.77
2022-08-20T10:37:23.499Z,20.60
2022-08-20T10:42:25.336Z,18.85
2022-08-20T10:47:30.125Z,18.50
2022-08-20T10:52:32.288Z,19.10
2022-08-20T10:57:34.818Z,21.88
2022-08-20T11:02:36.836Z,24.77
2022-08-20T11:07:55.356Z,23.60
2022-08-20T11:13:05.407Z,18.00
2022-08-20T11:18:07.684Z,21.27
2022-08-20T11:23:09.656Z,20.05
2022-08-20T11:28:13.037Z,22.10
2022-08-20T11:33:15.891Z,19.30
2022-08-20T11:38:19.850Z,20.15
2022-08-20T11:43:21.657Z,17.85
2022-08-20T11:48:23.700Z,17.63
2022-08-20T11:53:25.806Z,22.50
2022-08-20T11:58:27.900Z,21.15
2022-08-20T12:03:31.137Z,19.67
2022-08-20T12:08:33.072Z,15.77
2022-08-20T12:13:47.397Z,14.93
2022-08-20T12:18:51.068Z,17.30
2022-08-20T12:23:53.041Z,24.05
2022-08-20T12:28:58.991Z,18.80
2022-08-20T12:34:00.841Z,16.63
2022-08-20T12:39:02.942Z,15.75
2022-08-20T12:44:07.298Z,15.88
2022-08-20T12:49:16.485Z,20.25
2022-08-20T12:54:18.545Z,16.45
2022-08-20T12:59:26.054Z,17.30
2022-08-20T13:04:28.357Z,18.55
2022-08-20T13:09:30.627Z,16.83
2022-08-20T13:14:32.670Z,21.45
2022-08-20T13:19:36.614Z,17.02
2022-08-20T13:24:38.755Z,15.27
2022-08-20T13:29:47.879Z,20.25
2022-08-20T13:34:50.926Z,18.05
2022-08-20T13:39:57.294Z,15.50
2022-08-20T13:44:59.186Z,17.83
2022-08-20T13:50:05.398Z,13.48
2022-08-20T13:55:10.804Z,15.90
2022-08-20T14:00:17.003Z,17.83
2022-08-20T14:05:19.319Z,12.98
2022-08-20T14:10:26.984Z,16.20
2022-08-20T14:15:29.679Z,17.90
2022-08-20T14:20:34.348Z,14.00
2022-08-20T14:25:38.685Z,13.23
2022-08-20T14:30:41.098Z,13.55
2022-08-20T14:35:43.238Z,10.77
2022-08-20T14:40:45.321Z,12.57
2022-08-20T14:45:47.323Z,11.60
2022-08-20T14:50:49.165Z,14.57
2022-08-20T14:55:51.089Z,13.27
2022-08-20T15:00:54.188Z,13.75
2022-08-20T15:05:57.697Z,13.07
2022-08-20T15:11:00.245Z,12.02
2022-08-20T15:16:02.892Z,13.13
2022-08-20T15:21:05.085Z,14.07
2022-08-20T15:26:13.068Z,15.38
2022-08-20T15:31:15.484Z,14.48
2022-08-20T15:36:17.489Z,17.20
2022-08-20T15:41:19.424Z,13.40
2022-08-20T15:46:21.322Z,14.77
2022-08-20T15:51:31.739Z,17.45
2022-08-20T15:57:01.798Z,14.10
2022-08-20T16:02:26.061Z,14.23
2022-08-20T16:07:44.321Z,12.60
2022-08-20T16:12:51.718Z,15.85
2022-08-20T16:18:00.733Z,14.85
2022-08-20T16:23:04.281Z,14.40
2022-08-20T16:28:28.266Z,12.60
2022-08-20T16:33:55.382Z,17.50
2022-08-20T16:39:02.774Z,19.53
2022-08-20T16:44:21.510Z,13.60
2022-08-20T16:49:27.496Z,19.92
2022-08-20T16:54:31.219Z,15.30
2022-08-20T16:59:33.792Z,14.15
2022-08-20T17:04:50.447Z,13.32
2022-08-20T17:10:15.099Z,13.20
2022-08-20T17:15:30.659Z,14.80
2022-08-20T17:20:46.000Z,15.13
2022-08-20T17:26:17.222Z,17.23
2022-08-20T17:31:48.301Z,18.52
2022-08-20T17:37:08.178Z,16.45
2022-08-20T17:42:18.024Z,17.88
2022-08-20T17:47:25.462Z,17.63
2022-08-20T17:57:38.210Z,16.73
2022-08-20T18:02:40.816Z,15.57
2022-08-20T18:07:51.698Z,18.10
2022-08-20T18:13:00.537Z,16.77
2022-08-20T18:18:11.004Z,15.35
2022-08-20T18:23:47.641Z,18.05
2022-08-20T18:28:59.595Z,20.13
2022-08-20T18:34:12.713Z,18.60
2022-08-20T18:39:36.314Z,19.15
2022-08-20T18:44:41.477Z,16.15
2022-08-20T18:49:47.304Z,17.55
2022-08-20T18:54:57.321Z,16.02
2022-08-20T19:00:11.735Z,21.67
2022-08-20T19:05:16.226Z,22.33
2022-08-20T19:10:28.220Z,21.80
2022-08-20T19:15:33.881Z,23.60
2022-08-20T19:20:39.742Z,23.85
2022-08-20T19:25:56.730Z,17.42
2022-08-20T19:31:24.553Z,20.13
2022-08-20T19:36:28.105Z,17.50
2022-08-20T19:41:34.383Z,19.15
2022-08-20T19:46:44.498Z,16.15
2022-08-20T19:52:11.671Z,18.25
2022-08-20T19:57:14.912Z,21.13
2022-08-20T20:02:20.434Z,21.00
2022-08-20T20:07:35.823Z,17.42
2022-08-20T20:12:40.227Z,16.17
2022-08-20T20:17:43.403Z,19.48
2022-08-20T20:22:57.259Z,18.55
2022-08-20T20:28:17.638Z,19.73
2022-08-20T20:33:29.909Z,20.08
2022-08-20T20:38:32.334Z,16.95
2022-08-20T20:43:38.908Z,18.48
2022-08-20T20:48:46.308Z,15.87
2022-08-20T20:53:54.652Z,17.33
2022-08-20T20:59:00.207Z,21.45
2022-08-20T21:09:06.405Z,15.00
2022-08-20T21:14:08.381Z,16.02
2022-08-20T21:19:11.198Z,16.83
2022-08-20T21:24:13.155Z,15.65
2022-08-20T21:29:30.540Z,18.13
2022-08-20T21:34:34.377Z,19.77
2022-08-20T21:39:36.421Z,19.67
2022-08-20T21:44:38.525Z,19.50
2022-08-20T21:49:51.757Z,20.38
2022-08-20T21:54:53.671Z,24.67
2022-08-20T21:59:57.344Z,19.60
2022-08-20T22:04:59.141Z,17.67
2022-08-20T22:10:00.922Z,22.02
2022-08-20T22:15:04.022Z,14.45
2022-08-20T22:20:06.445Z,16.83
2022-08-20T22:25:10.267Z,20.33
2022-08-20T22:30:15.244Z,14.68
2022-08-20T22:35:17.570Z,17.60
2022-08-20T22:40:20.106Z,19.88
2022-08-20T22:45:22.005Z,16.15
2022-08-20T22:50:25.505Z,14.35
2022-08-20T22:55:27.449Z,16.23
2022-08-20T23:00:30.352Z,13.20
2022-08-20T23:05:35.033Z,18.77
2022-08-20T23:10:38.596Z,15.70
2022-08-20T23:15:41.504Z,16.10
2022-08-20T23:20:52.788Z,15.25
2022-08-20T23:25:55.557Z,23.52
2022-08-20T23:30:57.389Z,16.55
2022-08-20T23:35:59.687Z,16.23
2022-08-20T23:41:01.853Z,18.58
2022-08-20T23:46:06.724Z,17.17
2022-08-20T23:51:08.762Z,14.35
2022-08-20T23:56:10.736Z,18.80
